EST,Max TemperatureF,Mean TemperatureF,Min TemperatureF,Max Dew PointF,MeanDew PointF,Min DewpointF,Max Humidity, Mean Humidity, Min Humidity, Max Sea Level PressureIn, Mean Sea Level PressureIn, Min Sea Level PressureIn, Max VisibilityMiles, Mean VisibilityMiles, Min VisibilityMiles, Max Wind SpeedMPH, Mean Wind SpeedMPH, Max Gust SpeedMPH,PrecipitationIn, CloudCover, Events, WindDirDegrees
2012-11-1,43,40,36,34,30,27,90,74,57,29.78,29.71,29.66,10,9,4,17,12,25,0.00,7,Rain,308
2012-11-2,38,35,32,33,31,26,90,85,61,30.08,29.94,29.78,10,8,2,16,10,24,0.00,8,Rain-Snow,329
2012-11-3,36,34,31,32,29,27,91,84,74,30.18,30.15,30.08,10,9,2,10,4,16,0.00,8,Snow,357
2012-11-4,41,34,24,29,26,22,89,75,60,30.20,30.17,30.14,10,10,10,9,2,,0.00,6,,359
2012-11-5,32,25,18,27,22,16,88,76,64,30.21,30.17,30.11,10,10,10,7,3,,0.00,6,,73
2012-11-6,36,28,20,28,25,16,88,75,63,30.11,30.00,29.93,10,10,10,12,3,,0.00,8,,132
2012-11-7,43,33,23,29,26,21,89,72,52,30.13,30.06,29.96,10,10,2,13,5,,0.00,2,,107
2012-11-8,42,32,22,36,31,19,89,80,67,30.16,30.10,30.05,10,9,5,14,4,17,0.00,8,,202
2012-11-9,49,42,36,40,37,33,90,83,69,30.12,30.08,30.05,7,4,2,7,3,,0.00,8,Rain,112
2012-11-10,56,48,41,48,42,37,88,83,68,30.10,30.00,29.89,10,4,2,15,8,22,0.00,6,Rain,119
2012-11-11,66,60,54,53,48,43,89,62,52,29.93,29.85,29.76,10,10,4,25,15,37,0.00,5,Rain,191
2012-11-12,51,38,26,49,29,17,90,81,67,30.14,29.93,29.78,10,8,2,23,11,34,0.00,8,Rain-Snow,241
2012-11-13,36,31,26,24,20,18,86,69,49,30.45,30.34,30.14,10,9,2,13,7,,0.00,4,Snow,225
2012-11-14,38,32,26,26,23,20,79,68,57,30.48,30.43,30.35,10,10,10,12,6,16,0.00,3,,169
2012-11-15,45,38,31,32,28,22,91,74,54,30.35,30.31,30.26,10,9,0,10,6,,0.00,2,Fog,198
2012-11-16,44,34,23,36,29,21,92,84,58,30.45,30.40,30.32,10,6,0,5,0,,0.00,4,Fog,359
2012-11-17,51,36,22,39,28,19,94,80,44,30.53,30.49,30.45,10,8,0,9,1,,0.00,2,Fog,217
2012-11-18,54,41,28,32,30,26,89,66,36,30.48,30.42,30.36,10,10,5,12,4,,0.00,0,,150
2012-11-19,51,38,25,36,31,23,91,74,47,30.35,30.24,30.12,10,8,1,8,2,,0.00,3,,126
2012-11-20,49,44,39,45,40,33,91,86,64,30.14,30.10,30.07,10,5,1,4,0,,0.00,8,Rain,260
2012-11-21,53,46,38,46,41,35,93,86,69,30.19,30.12,30.02,10,4,0,14,4,20,0.00,5,Fog,200
2012-11-22,61,52,43,49,41,34,87,66,38,30.02,29.85,29.62,10,9,3,26,14,39,0.00,2,,201
2012-11-23,54,41,28,47,27,20,85,72,65,29.96,29.74,29.57,10,9,1,30,19,39,0.00,8,Snow,271
2012-11-24,29,28,26,22,20,18,78,71,68,30.06,30.01,29.92,10,10,7,18,12,26,0.00,8,Snow,285
2012-11-25,31,28,24,28,25,18,90,83,70,29.92,29.80,29.74,10,8,1,15,7,21,0.00,8,Snow,235
2012-11-26,28,26,23,23,18,14,79,70,63,30.24,30.11,29.93,10,10,2,14,7,17,0.00,8,Snow,279
2012-11-27,31,26,22,20,17,15,80,69,56,30.26,30.20,30.09,10,10,10,15,7,21,0.00,4,Snow,232
2012-11-28,31,26,21,26,20,16,88,74,52,30.21,30.16,30.08,10,9,1,15,8,22,0.00,5,Snow,251
2012-11-29,42,30,19,31,27,17,90,78,62,30.18,30.14,30.10,10,10,1,12,4,,0.00,4,,225
2012-11-30,32,30,29,31,29,26,94,89,85,30.24,30.20,30.17,10,7,0,17,12,24,0.00,8,Fog,86